createdAt,value
2023-02-27T00:00:25.924Z,3.03
2023-02-27T00:02:56.001Z,2.93
2023-02-27T00:05:26.057Z,2.50
2023-02-27T00:07:55.516Z,2.20
2023-02-27T00:10:25.006Z,2.70
2023-02-27T00:12:57.122Z,2.60
2023-02-27T00:15:26.595Z,2.47
2023-02-27T00:17:56.312Z,2.07
2023-02-27T00:20:25.755Z,2.50
2023-02-27T00:22:55.210Z,2.47
2023-02-27T00:25:24.627Z,2.13
2023-02-27T00:27:54.031Z,2.47
2023-02-27T00:30:26.565Z,2.27
2023-02-27T00:32:56.517Z,1.85
2023-02-27T00:35:26.026Z,2.20
2023-02-27T00:37:55.714Z,2.10
2023-02-27T00:40:25.410Z,2.70
2023-02-27T00:42:54.926Z,2.10
2023-02-27T00:45:27.059Z,2.50
2023-02-27T00:47:56.605Z,2.65
2023-02-27T00:50:26.028Z,2.90
2023-02-27T00:52:55.453Z,3.27
2023-02-27T00:55:26.944Z,3.27
2023-02-27T00:57:56.821Z,3.85
2023-02-27T01:00:29.386Z,3.40
2023-02-27T01:02:58.860Z,3.50
2023-02-27T01:05:28.339Z,4.03
2023-02-27T01:07:57.837Z,3.70
2023-02-27T01:10:27.232Z,3.00
2023-02-27T01:12:56.637Z,3.73
2023-02-27T01:15:25.996Z,3.40
2023-02-27T01:17:57.994Z,4.10
2023-02-27T01:20:27.349Z,3.08
2023-02-27T01:22:56.729Z,3.47
2023-02-27T01:25:26.081Z,3.80
2023-02-27T01:27:55.506Z,3.23
2023-02-27T01:30:24.927Z,3.40
2023-02-27T01:32:54.492Z,3.30
2023-02-27T01:35:29.308Z,3.67
2023-02-27T01:37:58.738Z,3.50
2023-02-27T01:40:28.487Z,3.30
2023-02-27T01:42:57.988Z,3.30
2023-02-27T01:45:33.072Z,3.40
2023-02-27T01:48:07.873Z,3.17
2023-02-27T01:50:46.026Z,3.53
2023-02-27T01:53:17.376Z,3.20
2023-02-27T01:58:18.956Z,3.53
2023-02-27T02:00:49.032Z,2.70
2023-02-27T02:03:24.878Z,2.87
2023-02-27T02:05:59.573Z,3.40
2023-02-27T02:08:31.458Z,2.80
2023-02-27T02:11:01.747Z,3.33
2023-02-27T02:13:31.440Z,2.70
2023-02-27T02:16:16.952Z,3.03
2023-02-27T02:18:55.674Z,2.43
2023-02-27T02:22:02.956Z,2.53
2023-02-27T02:25:05.944Z,2.70
2023-02-27T02:27:50.449Z,2.72
2023-02-27T02:30:47.580Z,2.93
2023-02-27T02:33:47.345Z,3.23
2023-02-27T02:36:43.468Z,2.87
2023-02-27T02:39:27.181Z,2.53
2023-02-27T02:42:05.679Z,3.23
2023-02-27T02:44:48.810Z,3.20
2023-02-27T02:47:29.766Z,3.03
2023-02-27T02:50:05.411Z,2.60
2023-02-27T02:52:47.858Z,3.00
2023-02-27T02:55:25.034Z,2.83
2023-02-27T02:58:00.772Z,3.13
2023-02-27T03:00:35.201Z,3.07
2023-02-27T03:03:13.778Z,3.13
2023-02-27T03:05:50.474Z,3.53
2023-02-27T03:08:25.106Z,2.90
2023-02-27T03:11:00.333Z,3.03
2023-02-27T03:13:36.819Z,2.97
2023-02-27T03:16:14.916Z,3.43
2023-02-27T03:18:49.042Z,2.93
2023-02-27T03:21:27.375Z,3.80
2023-02-27T03:24:02.454Z,2.93
2023-02-27T03:26:38.911Z,3.20
2023-02-27T03:29:11.962Z,3.40
2023-02-27T03:31:46.788Z,3.17
2023-02-27T03:34:21.747Z,3.40
2023-02-27T03:36:58.281Z,4.27
2023-02-27T03:39:35.396Z,3.30
2023-02-27T03:42:17.254Z,3.37
2023-02-27T03:45:14.448Z,3.77
2023-02-27T03:47:44.018Z,3.33
2023-02-27T03:50:14.505Z,3.57
2023-02-27T03:52:45.104Z,3.80
2023-02-27T03:55:18.695Z,3.87
2023-02-27T03:57:52.664Z,3.77
2023-02-27T04:00:24.329Z,3.77
2023-02-27T04:02:56.104Z,3.28
2023-02-27T04:05:28.445Z,3.70
2023-02-27T04:08:16.386Z,3.53
2023-02-27T04:11:04.431Z,3.83
2023-02-27T04:14:00.961Z,3.10
2023-02-27T04:16:47.228Z,3.10
2023-02-27T04:19:32.691Z,4.07
2023-02-27T04:22:15.425Z,3.87
2023-02-27T04:24:55.561Z,3.13
2023-02-27T04:27:36.269Z,3.33
2023-02-27T04:30:19.087Z,3.47
2023-02-27T04:32:55.808Z,3.40
2023-02-27T04:35:28.958Z,3.00
2023-02-27T04:38:03.342Z,3.77
2023-02-27T04:40:38.224Z,3.50
2023-02-27T04:43:11.491Z,2.97
2023-02-27T04:45:45.520Z,3.63
2023-02-27T04:48:22.182Z,3.90
2023-02-27T04:50:57.919Z,3.13
2023-02-27T04:53:33.100Z,3.30
2023-02-27T04:56:07.287Z,3.23
2023-02-27T04:58:39.525Z,4.10
2023-02-27T05:01:18.851Z,3.70
2023-02-27T05:03:52.727Z,3.13
2023-02-27T05:06:25.979Z,3.40
2023-02-27T05:09:01.798Z,3.50
2023-02-27T05:11:35.624Z,3.80
2023-02-27T05:14:13.240Z,3.30
2023-02-27T05:16:49.441Z,3.97
2023-02-27T05:19:19.622Z,3.53
2023-02-27T05:21:56.560Z,3.90
2023-02-27T05:24:35.563Z,3.23
2023-02-27T05:27:17.767Z,3.63
2023-02-27T05:29:52.049Z,3.83
2023-02-27T05:32:33.983Z,3.93
2023-02-27T05:35:12.046Z,3.40
2023-02-27T05:37:47.806Z,3.53
2023-02-27T05:40:21.886Z,3.87
2023-02-27T05:42:56.194Z,4.50
2023-02-27T05:45:30.374Z,3.60
2023-02-27T05:48:07.219Z,3.97
2023-02-27T05:50:40.456Z,3.97
2023-02-27T05:53:14.186Z,3.70
2023-02-27T05:55:46.843Z,4.00
2023-02-27T06:00:54.266Z,4.13
2023-02-27T06:03:26.677Z,4.27
2023-02-27T06:05:57.894Z,4.55
2023-02-27T06:08:28.027Z,3.70
2023-02-27T06:10:57.695Z,3.50
2023-02-27T06:13:28.415Z,4.37
2023-02-27T06:15:57.942Z,3.87
2023-02-27T06:18:30.035Z,3.53
2023-02-27T06:20:59.668Z,3.90
2023-02-27T06:23:29.029Z,4.07
2023-02-27T06:25:58.422Z,4.03
2023-02-27T06:28:27.860Z,4.27
2023-02-27T06:30:57.887Z,4.00
2023-02-27T06:33:29.886Z,4.40
2023-02-27T06:35:59.478Z,5.35
2023-02-27T06:38:29.054Z,5.13
2023-02-27T06:40:59.116Z,4.80
2023-02-27T06:43:28.948Z,4.10
2023-02-27T06:45:58.424Z,5.40
2023-02-27T06:48:30.496Z,4.23
2023-02-27T06:51:00.170Z,4.88
2023-02-27T06:53:29.707Z,4.63
2023-02-27T06:55:59.288Z,5.07
2023-02-27T06:58:28.797Z,4.87
2023-02-27T07:00:58.244Z,4.50
2023-02-27T07:03:30.772Z,4.60
2023-02-27T07:06:00.756Z,4.30
2023-02-27T07:08:30.286Z,4.07
2023-02-27T07:10:59.712Z,4.37
2023-02-27T07:13:29.145Z,4.67
2023-02-27T07:15:58.572Z,4.27
2023-02-27T07:18:31.048Z,5.50
2023-02-27T07:21:00.407Z,4.45
2023-02-27T07:23:29.813Z,4.33
2023-02-27T07:25:59.177Z,4.77
2023-02-27T07:28:29.089Z,4.43
2023-02-27T07:30:58.526Z,4.57
2023-02-27T07:33:32.209Z,4.93
2023-02-27T07:36:01.648Z,5.13
2023-02-27T07:38:32.421Z,4.93
2023-02-27T07:41:01.877Z,5.90
2023-02-27T07:43:31.254Z,4.87
2023-02-27T07:46:04.021Z,4.60
2023-02-27T07:48:36.719Z,5.17
2023-02-27T07:51:06.342Z,5.38
2023-02-27T07:53:35.956Z,5.10
2023-02-27T07:56:05.346Z,5.10
2023-02-27T07:58:35.277Z,4.80
2023-02-27T08:01:04.662Z,4.83
2023-02-27T08:03:36.635Z,4.63
2023-02-27T08:06:06.254Z,4.90
2023-02-27T08:08:35.760Z,5.13
2023-02-27T08:11:05.288Z,4.80
2023-02-27T08:16:24.153Z,4.73
2023-02-27T08:18:56.132Z,5.47
2023-02-27T08:21:26.115Z,5.03
2023-02-27T08:54:17.353Z,4.53
2023-02-27T08:56:47.680Z,4.63
2023-02-27T08:59:17.550Z,4.67
2023-02-27T09:01:47.002Z,4.90
2023-02-27T09:04:16.484Z,4.87
2023-02-27T09:06:45.943Z,3.83
2023-02-27T09:09:17.984Z,4.50
2023-02-27T09:11:48.380Z,4.43
2023-02-27T09:14:17.896Z,4.80
2023-02-27T09:16:47.558Z,4.50
2023-02-27T09:19:17.005Z,4.70
2023-02-27T09:21:46.423Z,4.07
2023-02-27T09:24:20.547Z,3.90
2023-02-27T09:26:50.676Z,3.87
2023-02-27T09:29:21.408Z,3.63
2023-02-27T09:31:50.915Z,3.63
2023-02-27T09:34:20.499Z,3.83
2023-02-27T09:36:49.959Z,3.90
2023-02-27T09:39:22.035Z,3.83
2023-02-27T09:41:59.044Z,3.88
2023-02-27T09:44:46.076Z,3.70
2023-02-27T09:47:24.032Z,2.83
2023-02-27T09:50:03.981Z,3.53
2023-02-27T09:52:36.956Z,3.70
2023-02-27T09:55:18.735Z,3.33
2023-02-27T09:57:53.420Z,3.17
2023-02-27T10:00:47.673Z,3.47
2023-02-27T10:03:33.152Z,3.50
2023-02-27T10:06:21.693Z,2.57
2023-02-27T10:09:01.139Z,3.20
2023-02-27T10:11:41.740Z,3.40
2023-02-27T10:14:29.564Z,3.03
2023-02-27T10:17:00.895Z,3.27
2023-02-27T10:19:33.925Z,3.40
2023-02-27T10:22:07.784Z,3.00
2023-02-27T10:24:42.977Z,2.70
2023-02-27T10:27:20.410Z,3.23
2023-02-27T10:29:50.227Z,3.30
2023-02-27T10:32:23.854Z,2.87
2023-02-27T10:34:56.970Z,2.60
2023-02-27T10:37:30.406Z,2.47
2023-02-27T10:40:04.434Z,2.83
2023-02-27T10:42:41.746Z,2.77
2023-02-27T10:45:17.330Z,2.73
2023-02-27T10:47:47.618Z,2.70
2023-02-27T10:50:25.438Z,2.90
2023-02-27T10:52:56.683Z,2.90
2023-02-27T10:55:31.898Z,2.57
2023-02-27T10:58:05.902Z,4.20
2023-02-27T11:00:44.279Z,3.27
2023-02-27T11:03:23.362Z,2.80
2023-02-27T11:06:00.089Z,2.90
2023-02-27T11:08:32.252Z,2.80
2023-02-27T11:11:05.199Z,3.15
2023-02-27T11:13:39.745Z,3.07
2023-02-27T11:16:17.467Z,2.90
2023-02-27T11:18:48.718Z,3.30
2023-02-27T11:21:23.091Z,2.90
2023-02-27T11:24:03.946Z,2.40
2023-02-27T11:26:36.436Z,3.37
2023-02-27T11:29:15.413Z,2.38
2023-02-27T11:31:51.492Z,2.03
2023-02-27T11:34:29.125Z,2.17
2023-02-27T11:37:03.465Z,2.70
2023-02-27T11:39:36.877Z,2.10
2023-02-27T11:42:17.649Z,2.10
2023-02-27T11:45:02.815Z,2.13
2023-02-27T11:47:36.216Z,2.77
2023-02-27T11:50:28.463Z,2.00
2023-02-27T11:53:07.278Z,2.07
2023-02-27T11:55:38.352Z,2.50
2023-02-27T11:58:16.232Z,2.27
2023-02-27T12:00:52.064Z,2.43
2023-02-27T12:03:27.698Z,2.23
2023-02-27T12:06:00.045Z,2.70
2023-02-27T12:08:37.929Z,2.22
2023-02-27T12:11:16.192Z,1.83
2023-02-27T12:13:50.097Z,1.60
2023-02-27T12:16:32.324Z,1.80
2023-02-27T12:19:08.498Z,2.30
2023-02-27T12:21:42.933Z,1.90
2023-02-27T12:24:19.752Z,2.20
2023-02-27T12:26:52.323Z,1.90
2023-02-27T12:29:29.211Z,2.00
2023-02-27T12:32:05.921Z,2.10
2023-02-27T12:34:43.555Z,2.20
2023-02-27T12:37:18.088Z,2.10
2023-02-27T12:39:48.331Z,1.90
2023-02-27T12:42:42.714Z,2.03
2023-02-27T12:45:50.907Z,2.00
2023-02-27T12:48:33.862Z,1.83
2023-02-27T12:51:16.647Z,1.90
2023-02-27T12:54:05.095Z,2.10
2023-02-27T12:56:48.262Z,1.90
2023-02-27T12:59:31.558Z,2.07
2023-02-27T13:02:18.811Z,2.03
2023-02-27T13:05:03.073Z,2.20
2023-02-27T13:07:37.580Z,1.90
2023-02-27T13:10:16.597Z,2.00
2023-02-27T13:12:53.693Z,2.20
2023-02-27T13:15:30.126Z,2.03
2023-02-27T13:18:05.177Z,2.30
2023-02-27T13:20:44.266Z,1.90
2023-02-27T13:23:20.857Z,1.93
2023-02-27T13:25:53.441Z,1.80
2023-02-27T13:28:28.178Z,1.80
2023-02-27T13:31:08.243Z,1.40
2023-02-27T13:33:46.266Z,2.00
2023-02-27T13:36:24.640Z,1.90
2023-02-27T13:38:56.294Z,1.88
2023-02-27T13:41:41.047Z,2.15
2023-02-27T13:44:40.381Z,2.28
2023-02-27T13:47:40.472Z,2.50
2023-02-27T13:50:40.633Z,2.25
2023-02-27T13:53:20.681Z,2.65
2023-02-27T13:55:50.407Z,2.00
2023-02-27T13:58:24.819Z,2.20
2023-02-27T14:01:02.393Z,2.05
2023-02-27T14:03:33.978Z,2.10
2023-02-27T14:06:08.657Z,2.03
2023-02-27T14:08:55.708Z,2.10
2023-02-27T14:11:33.085Z,1.83
2023-02-27T14:14:08.494Z,2.20
2023-02-27T14:16:54.891Z,1.80
2023-02-27T14:19:57.265Z,1.70
2023-02-27T14:22:37.328Z,1.33
2023-02-27T14:25:32.752Z,1.30
2023-02-27T14:28:04.310Z,1.80
2023-02-27T14:30:44.900Z,1.00
2023-02-27T14:33:33.367Z,1.20
2023-02-27T14:36:11.432Z,1.15
2023-02-27T14:38:41.498Z,1.13
2023-02-27T14:41:27.693Z,1.10
2023-02-27T14:43:59.106Z,1.30
2023-02-27T14:46:32.411Z,1.10
2023-02-27T14:49:04.455Z,1.20
2023-02-27T14:51:36.091Z,1.55
2023-02-27T14:54:10.035Z,1.00
2023-02-27T14:56:43.083Z,1.10
2023-02-27T14:59:26.342Z,1.00
2023-02-27T15:01:58.004Z,1.13
2023-02-27T15:04:31.017Z,1.10
2023-02-27T15:07:02.974Z,1.17
2023-02-27T15:09:37.591Z,1.40
2023-02-27T15:12:11.127Z,1.67
2023-02-27T15:14:42.757Z,1.53
2023-02-27T15:17:24.265Z,1.10
2023-02-27T15:19:55.605Z,1.30
2023-02-27T15:22:38.838Z,1.47
2023-02-27T15:25:10.339Z,1.33
2023-02-27T15:27:44.617Z,1.10
2023-02-27T15:30:23.647Z,1.37
2023-02-27T15:32:55.437Z,1.27
2023-02-27T15:35:28.071Z,1.40
2023-02-27T15:37:59.958Z,0.90
2023-02-27T15:40:31.443Z,1.48
2023-02-27T15:43:04.254Z,1.10
2023-02-27T15:48:04.961Z,1.13
2023-02-27T15:50:38.895Z,1.33
2023-02-27T15:53:14.905Z,1.80
2023-02-27T15:55:47.986Z,1.20
2023-02-27T15:58:26.718Z,1.30
2023-02-27T16:01:02.962Z,1.43
2023-02-27T16:03:38.426Z,1.20
2023-02-27T16:06:13.728Z,1.00
2023-02-27T16:08:49.106Z,1.10
2023-02-27T16:11:22.213Z,1.40
2023-02-27T16:13:54.974Z,1.23
2023-02-27T16:19:18.957Z,1.17
2023-02-27T16:22:07.351Z,1.48
2023-02-27T16:24:36.986Z,1.53
2023-02-27T16:27:07.188Z,1.40
2023-02-27T16:29:44.882Z,1.43
2023-02-27T16:32:25.560Z,1.40
2023-02-27T16:35:03.548Z,1.20
2023-02-27T16:37:39.563Z,1.97
2023-02-27T16:40:16.845Z,1.30
2023-02-27T16:42:47.225Z,2.10
2023-02-27T16:45:22.929Z,1.20
2023-02-27T16:47:54.248Z,1.20
2023-02-27T16:50:26.610Z,1.50
2023-02-27T16:52:57.213Z,2.28
2023-02-27T16:55:27.929Z,1.47
2023-02-27T16:57:57.383Z,1.50
2023-02-27T17:00:29.628Z,1.73
2023-02-27T17:02:59.127Z,1.60
2023-02-27T17:05:28.670Z,1.40
2023-02-27T17:07:58.042Z,1.37
2023-02-27T17:10:27.706Z,1.40
2023-02-27T17:12:57.306Z,2.00
2023-02-27T17:15:30.129Z,1.80
2023-02-27T17:20:30.303Z,1.70
2023-02-27T17:22:59.783Z,1.40
2023-02-27T17:25:29.195Z,1.40
2023-02-27T17:27:58.756Z,1.70
2023-02-27T17:30:30.949Z,1.60
2023-02-27T17:33:02.071Z,1.70
2023-02-27T17:38:03.394Z,1.30
2023-02-27T17:40:32.987Z,2.40
2023-02-27T17:43:02.382Z,1.73
2023-02-27T17:45:34.401Z,1.77
2023-02-27T17:48:03.836Z,1.50
2023-02-27T17:50:34.516Z,1.77
2023-02-27T17:53:03.952Z,1.83
2023-02-27T17:55:33.480Z,2.10
2023-02-27T17:58:02.923Z,1.80
2023-02-27T18:00:35.082Z,1.97
2023-02-27T18:03:04.611Z,1.67
2023-02-27T18:05:34.036Z,2.00
2023-02-27T18:08:06.636Z,1.90
2023-02-27T18:10:36.849Z,1.92
2023-02-27T18:13:06.211Z,2.37
2023-02-27T18:15:38.315Z,1.93
2023-02-27T18:18:07.900Z,2.10
2023-02-27T18:20:37.412Z,1.93
2023-02-27T18:23:07.072Z,1.63
2023-02-27T18:25:36.608Z,1.90
2023-02-27T18:28:06.507Z,3.40
2023-02-27T18:30:41.435Z,3.07
2023-02-27T18:33:10.923Z,2.70
2023-02-27T18:35:40.527Z,2.23
2023-02-27T18:38:10.055Z,1.90
2023-02-27T18:40:40.018Z,1.80
2023-02-27T18:43:09.429Z,2.07
2023-02-27T18:45:42.004Z,1.70
2023-02-27T18:48:11.823Z,1.70
2023-02-27T18:50:41.380Z,1.70
2023-02-27T18:53:10.790Z,2.30
2023-02-27T18:55:40.234Z,2.00
2023-02-27T18:58:09.638Z,2.33
2023-02-27T19:00:39.053Z,2.40
2023-02-27T19:03:11.272Z,2.60
2023-02-27T19:05:43.141Z,2.78
2023-02-27T19:08:12.905Z,2.28
2023-02-27T19:10:43.001Z,3.07
2023-02-27T19:13:13.673Z,2.20
2023-02-27T19:15:43.256Z,2.30
2023-02-27T19:18:15.431Z,2.23
2023-02-27T19:20:44.838Z,2.22
2023-02-27T19:23:14.391Z,2.13
2023-02-27T19:25:47.744Z,2.17
2023-02-27T19:28:17.880Z,2.37
2023-02-27T19:30:47.420Z,3.20
2023-02-27T19:33:19.350Z,2.97
2023-02-27T19:35:48.843Z,2.10
2023-02-27T19:38:18.455Z,2.37
2023-02-27T19:40:48.127Z,2.13
2023-02-27T19:43:18.015Z,2.80
2023-02-27T19:45:49.742Z,2.50
2023-02-27T19:48:23.626Z,2.40
2023-02-27T19:50:53.239Z,2.50
2023-02-27T19:53:23.076Z,2.80
2023-02-27T19:56:09.870Z,2.75
2023-02-27T19:58:52.579Z,2.97
2023-02-27T20:01:40.630Z,3.55
2023-02-27T20:04:18.853Z,3.40
2023-02-27T20:06:53.047Z,3.20
2023-02-27T20:09:23.297Z,2.97
2023-02-27T20:11:58.263Z,3.60
2023-02-27T20:14:29.609Z,2.93
2023-02-27T20:16:59.345Z,3.77
2023-02-27T20:19:34.697Z,5.03
2023-02-27T20:22:04.274Z,3.57
2023-02-27T20:24:33.660Z,3.40
2023-02-27T20:27:03.079Z,3.30
2023-02-27T20:29:32.548Z,3.60
2023-02-27T20:32:02.335Z,3.23
2023-02-27T20:34:34.914Z,2.70
2023-02-27T20:37:06.675Z,2.97
2023-02-27T20:39:39.440Z,2.93
2023-02-27T20:44:40.539Z,3.07
2023-02-27T20:47:10.535Z,3.20
2023-02-27T20:49:42.910Z,3.13
2023-02-27T20:52:12.724Z,3.53
2023-02-27T20:54:45.111Z,3.90
2023-02-27T20:57:14.517Z,4.10
2023-02-27T20:59:43.984Z,3.67
2023-02-27T21:02:14.037Z,3.60
2023-02-27T21:04:47.546Z,3.77
2023-02-27T21:07:21.335Z,3.97
2023-02-27T21:09:50.967Z,3.30
2023-02-27T21:12:20.650Z,3.63
2023-02-27T21:14:50.296Z,4.63
2023-02-27T21:17:19.677Z,3.67
2023-02-27T21:19:51.907Z,3.83
2023-02-27T21:22:21.432Z,4.30
2023-02-27T21:24:53.684Z,4.53
2023-02-27T21:27:23.166Z,4.15
2023-02-27T21:29:53.264Z,4.13
2023-02-27T21:32:22.752Z,4.00
2023-02-27T21:34:54.827Z,4.40
2023-02-27T21:37:24.438Z,4.13
2023-02-27T21:39:56.796Z,4.77
2023-02-27T21:42:26.855Z,4.18
2023-02-27T21:44:56.330Z,4.40
2023-02-27T21:47:25.766Z,4.07
2023-02-27T21:49:57.967Z,4.70
2023-02-27T21:52:27.387Z,4.18
2023-02-27T21:54:57.639Z,4.63
2023-02-27T21:57:27.108Z,4.50
2023-02-27T21:59:56.591Z,4.33
2023-02-27T22:02:26.005Z,4.00
2023-02-27T22:04:58.068Z,4.47
2023-02-27T22:07:27.516Z,4.65
2023-02-27T22:09:57.094Z,4.27
2023-02-27T22:12:27.094Z,4.30
2023-02-27T22:14:56.485Z,3.57
2023-02-27T22:17:25.873Z,3.90
2023-02-27T22:19:57.833Z,3.60
2023-02-27T22:22:27.322Z,4.20
2023-02-27T22:24:56.817Z,4.03
2023-02-27T22:27:26.223Z,4.27
2023-02-27T22:29:55.831Z,4.47
2023-02-27T22:32:25.329Z,4.23
2023-02-27T22:34:54.728Z,5.47
2023-02-27T22:37:26.931Z,4.50
2023-02-27T22:39:56.325Z,4.90
2023-02-27T22:42:25.738Z,5.20
2023-02-27T22:44:55.189Z,4.90
2023-02-27T22:47:24.856Z,4.93
2023-02-27T22:49:54.548Z,4.50
2023-02-27T22:52:26.553Z,4.50
2023-02-27T22:54:56.260Z,5.65
2023-02-27T22:57:25.737Z,4.50
2023-02-27T22:59:55.487Z,5.60
2023-02-27T23:02:25.220Z,5.33
2023-02-27T23:04:54.608Z,5.50
2023-02-27T23:07:26.627Z,4.90
2023-02-27T23:09:56.066Z,4.90
2023-02-27T23:12:27.380Z,5.57
2023-02-27T23:14:57.328Z,5.63
2023-02-27T23:17:27.086Z,4.60
2023-02-27T23:19:56.632Z,4.70
2023-02-27T23:22:33.614Z,4.50
2023-02-27T23:25:07.243Z,4.87
2023-02-27T23:27:36.689Z,4.90
2023-02-27T23:30:07.010Z,4.70
2023-02-27T23:32:43.204Z,4.17
2023-02-27T23:35:13.656Z,4.60
2023-02-27T23:37:45.620Z,3.90
2023-02-27T23:40:15.603Z,3.88
2023-02-27T23:42:45.065Z,4.37
2023-02-27T23:45:27.046Z,4.87
2023-02-27T23:47:58.236Z,4.18
2023-02-27T23:50:29.085Z,4.07
2023-02-27T23:53:02.317Z,4.37
2023-02-27T23:55:34.163Z,4.40
2023-02-27T23:58:07.341Z,5.57
